Cuiaba, Brazil
Current Conditions -  °F | °C
As of 2:00 PM on Thursday 30 Oct 2014 (Local Time) from SBCY Reporting Station
Scattered Clouds Scattered Clouds  
Wind Chill: 90°   Ceiling: Unl
Heat Index: 93°   Visibility: 6mi
Dew Point: 68°   Wind: 13mph
Humidity: 49%   Direction: 320°NW
Pressure: 29.77"   Gusts: NA
Location:  15.61°S, 56.09°W
Report Text: SBCY 301700Z 32011KT 9999 SCT020 FEW025TCU SCT100 32/20 Q1008
Loading
Personal Weather Stations






























Interactive Weather Map
Tropical Storm Tracking
New forecast layout! Learn more

10-Day Weather Forecast

Advertisements
Track Severe Weather on mobile